Mariner Of The Seas — C6FV9 — position and weather

sailwx.info

Track history (hours):
 
Tides and Currents Weather Stations Pressure Air Temp Water Temp Dewpoint Dewpoint Depression Visibility Wind Speed Wind Dir Waves Ship Positions

Mariner Of The Seas

Operator: Royal Caribbean Cruises Ltd

Last reported at 2016-May-30 10:23 UTC. Time now 2016-May-30 22:20 UTC.
Position N 31°19' E 121°45'.

Type: Passenger vessel. MMSI: 311493000.

Date/timePositionNaut miles runAvg speedWind from/ knotsBaromVisibWave heightAir tempDewpointWater temp
2016-May-30 10:23N 31°19' E 121°45'911.0
2016-May-30 09:32N 31°23' E 121°35'4 4.2
2016-May-30 08:29N 31°25' E 121°30'0 0.0
2016-May-30 07:29N 31°25' E 121°30'0 0.0
2016-May-30 06:29N 31°25' E 121°30'0 0.0
2016-May-30 05:29N 31°25' E 121°30'0 0.0
2016-May-30 04:29N 31°25' E 121°30'0 0.0
2016-May-30 03:29N 31°25' E 121°30'0 0.0
2016-May-30 02:32N 31°25' E 121°30'0 0.0
2016-May-30 00:29N 31°25' E 121°30'0 0.0
2016-May-29 23:29N 31°25' E 121°30'0 0.2
2016-May-29 22:33N 31°25' E 121°30'1010.0
2016-May-29 21:33N 31°20' E 121°41'1111.0
2016-May-29 20:32N 31°16' E 121°53'1210.4
2016-May-29 19:25N 31°14' E 122°06'  
2016-May-26 13:20N 31°19' E 121°44'1114.3
2016-May-26 12:33N 31°24' E 121°33'2 2.3
2016-May-26 11:32N 31°25' E 121°30'0 0.0
2016-May-26 10:32N 31°25' E 121°30'0 0.0
2016-May-26 09:29N 31°25' E 121°30'0 0.0
2016-May-26 08:29N 31°25' E 121°30'0 0.0
2016-May-26 07:29N 31°25' E 121°30'0 0.0
2016-May-26 06:32N 31°25' E 121°30'0 0.0
2016-May-26 05:23N 31°25' E 121°30'0 0.0
2016-May-26 04:29N 31°25' E 121°30'0 0.0
2016-May-26 03:29N 31°25' E 121°30'0 0.0
2016-May-26 02:26N 31°25' E 121°30'0 0.0
2016-May-26 01:29N 31°25' E 121°30'0 0.0
2016-May-26 00:29N 31°25' E 121°30'0 0.0
2016-May-25 23:29N 31°25' E 121°30'0 0.0
2016-May-25 22:29N 31°25' E 121°30'0 0.0
2016-May-25 21:29N 31°25' E 121°30'0 0.0
2016-May-25 20:26N 31°25' E 121°30'1 1.7
2016-May-25 19:33N 31°25' E 121°32'1110.6
2016-May-25 18:33N 31°20' E 121°43'1210.5
2016-May-25 17:26N 31°15' E 121°56'8 9.2
2016-May-25 16:32N 31°14' E 122°05'  
2016-May-22 10:14N 31°16' E 121°53'1014.5
2016-May-22 09:33N 31°19' E 121°43'1211.8
2016-May-22 08:33N 31°25' E 121°30'0 0.3
2016-May-22 07:27N 31°25' E 121°30'0 0.0
2016-May-22 06:34N 31°25' E 121°30'0 0.0
2016-May-22 05:33N 31°25' E 121°30'0 0.0
2016-May-22 03:04N 31°25' E 121°30'0 0.0
2016-May-22 01:22N 31°25' E 121°30'2 2.3
2016-May-22 00:33N 31°25' E 121°32'8 7.6
2016-May-21 23:33N 31°21' E 121°40'9 8.9
2016-May-21 22:33N 31°17' E 121°50'8 7.7
2016-May-21 21:33N 31°15' E 121°58'8 8.1
2016-May-21 20:33N 31°13' E 122°07'  
Track history (hours):
 
Tides and Currents Weather Stations Pressure Air Temp Water Temp Dewpoint Dewpoint Depression Visibility Wind Speed Wind Dir Waves Ship Positions

Mariner Of The Seas

Operator: Royal Caribbean Cruises Ltd

Last reported at 2016-May-30 10:23 UTC. Time now 2016-May-30 22:20 UTC.
Position N 31°19' E 121°45'.

Type: Passenger vessel. MMSI: 311493000.

Date/timePositionNaut miles runAvg speedWind from/ knotsBaromVisibWave heightAir tempDewpointWater temp
2016-May-30 10:23N 31°19' E 121°45'911.0
2016-May-30 09:32N 31°23' E 121°35'4 4.2
2016-May-30 08:29N 31°25' E 121°30'0 0.0
2016-May-30 07:29N 31°25' E 121°30'0 0.0
2016-May-30 06:29N 31°25' E 121°30'0 0.0
2016-May-30 05:29N 31°25' E 121°30'0 0.0
2016-May-30 04:29N 31°25' E 121°30'0 0.0
2016-May-30 03:29N 31°25' E 121°30'0 0.0
2016-May-30 02:32N 31°25' E 121°30'0 0.0
2016-May-30 00:29N 31°25' E 121°30'0 0.0
2016-May-29 23:29N 31°25' E 121°30'0 0.2
2016-May-29 22:33N 31°25' E 121°30'1010.0
2016-May-29 21:33N 31°20' E 121°41'1111.0
2016-May-29 20:32N 31°16' E 121°53'1210.4
2016-May-29 19:25N 31°14' E 122°06'  
2016-May-26 13:20N 31°19' E 121°44'1114.3
2016-May-26 12:33N 31°24' E 121°33'2 2.3
2016-May-26 11:32N 31°25' E 121°30'0 0.0
2016-May-26 10:32N 31°25' E 121°30'0 0.0
2016-May-26 09:29N 31°25' E 121°30'0 0.0
2016-May-26 08:29N 31°25' E 121°30'0 0.0
2016-May-26 07:29N 31°25' E 121°30'0 0.0
2016-May-26 06:32N 31°25' E 121°30'0 0.0
2016-May-26 05:23N 31°25' E 121°30'0 0.0
2016-May-26 04:29N 31°25' E 121°30'0 0.0
2016-May-26 03:29N 31°25' E 121°30'0 0.0
2016-May-26 02:26N 31°25' E 121°30'0 0.0
2016-May-26 01:29N 31°25' E 121°30'0 0.0
2016-May-26 00:29N 31°25' E 121°30'0 0.0
2016-May-25 23:29N 31°25' E 121°30'0 0.0
2016-May-25 22:29N 31°25' E 121°30'0 0.0
2016-May-25 21:29N 31°25' E 121°30'0 0.0
2016-May-25 20:26N 31°25' E 121°30'1 1.7
2016-May-25 19:33N 31°25' E 121°32'1110.6
2016-May-25 18:33N 31°20' E 121°43'1210.5
2016-May-25 17:26N 31°15' E 121°56'8 9.2
2016-May-25 16:32N 31°14' E 122°05'  
2016-May-22 10:14N 31°16' E 121°53'1014.5
2016-May-22 09:33N 31°19' E 121°43'1211.8
2016-May-22 08:33N 31°25' E 121°30'0 0.3
2016-May-22 07:27N 31°25' E 121°30'0 0.0
2016-May-22 06:34N 31°25' E 121°30'0 0.0
2016-May-22 05:33N 31°25' E 121°30'0 0.0
2016-May-22 03:04N 31°25' E 121°30'0 0.0
2016-May-22 01:22N 31°25' E 121°30'2 2.3
2016-May-22 00:33N 31°25' E 121°32'8 7.6
2016-May-21 23:33N 31°21' E 121°40'9 8.9
2016-May-21 22:33N 31°17' E 121°50'8 7.7
2016-May-21 21:33N 31°15' E 121°58'8 8.1
2016-May-21 20:33N 31°13' E 122°07'  

Dump ship's entire track history